createdAt,value
2022-11-02T00:00:50.328Z,11.17
2022-11-02T00:03:18.240Z,11.15
2022-11-02T00:05:46.124Z,11.14
2022-11-02T00:08:14.050Z,11.15
2022-11-02T00:10:41.900Z,11.12
2022-11-02T00:13:09.721Z,11.09
2022-11-02T00:15:37.754Z,11.10
2022-11-02T00:18:07.645Z,11.08
2022-11-02T00:20:36.988Z,11.07
2022-11-02T00:23:06.148Z,11.03
2022-11-02T00:25:34.537Z,11.03
2022-11-02T00:28:02.634Z,11.01
2022-11-02T00:30:30.563Z,10.96
2022-11-02T00:32:58.570Z,10.94
2022-11-02T00:35:26.524Z,10.92
2022-11-02T00:37:54.484Z,10.88
2022-11-02T00:40:22.653Z,10.86
2022-11-02T00:42:50.730Z,10.84
2022-11-02T00:45:18.694Z,10.88
2022-11-02T00:47:46.609Z,10.91
2022-11-02T00:50:14.463Z,10.95
2022-11-02T00:52:43.571Z,10.96
2022-11-02T00:55:12.390Z,10.98
2022-11-02T00:57:40.773Z,11.00
2022-11-02T01:00:09.979Z,11.02
2022-11-02T01:02:38.874Z,11.03
2022-11-02T01:05:10.160Z,11.04
2022-11-02T01:07:42.927Z,11.07
2022-11-02T01:10:14.132Z,11.04
2022-11-02T01:12:42.182Z,11.00
2022-11-02T01:15:11.756Z,11.00
2022-11-02T01:17:39.815Z,11.03
2022-11-02T01:20:08.689Z,11.06
2022-11-02T01:22:40.103Z,11.08
2022-11-02T01:25:09.056Z,11.15
2022-11-02T01:27:37.053Z,11.19
2022-11-02T01:30:06.453Z,11.22
2022-11-02T01:32:34.364Z,11.26
2022-11-02T01:35:04.023Z,11.27
2022-11-02T01:37:32.127Z,11.28
2022-11-02T01:40:03.351Z,11.31
2022-11-02T01:42:31.334Z,11.35
2022-11-02T01:45:03.740Z,11.39
2022-11-02T01:47:34.140Z,11.42
2022-11-02T01:50:10.134Z,11.45
2022-11-02T01:52:38.841Z,11.49
2022-11-02T01:55:20.794Z,11.50
2022-11-02T01:57:54.491Z,11.54
2022-11-02T02:00:22.509Z,11.56
2022-11-02T02:03:05.627Z,11.57
2022-11-02T02:05:35.098Z,11.59
2022-11-02T02:08:04.253Z,11.60
2022-11-02T02:10:32.284Z,11.62
2022-11-02T02:13:03.396Z,11.61
2022-11-02T02:15:42.421Z,11.62
2022-11-02T02:18:32.740Z,11.62
2022-11-02T02:21:10.905Z,11.66
2022-11-02T02:23:41.539Z,11.72
2022-11-02T02:26:20.845Z,11.75
2022-11-02T02:29:22.863Z,11.76
2022-11-02T02:32:12.842Z,11.78
2022-11-02T02:34:47.400Z,11.80
2022-11-02T02:37:21.583Z,11.82
2022-11-02T02:40:14.731Z,11.84
2022-11-02T02:42:54.787Z,11.84
2022-11-02T02:45:28.658Z,11.89
2022-11-02T02:48:11.712Z,11.92
2022-11-02T02:51:06.474Z,11.94
2022-11-02T02:53:43.262Z,11.96
2022-11-02T02:56:11.350Z,11.99
2022-11-02T02:59:03.746Z,11.99
2022-11-02T03:01:31.732Z,12.01
2022-11-02T03:03:59.670Z,12.02
2022-11-02T03:06:39.642Z,12.03
2022-11-02T03:09:37.941Z,12.07
2022-11-02T03:12:05.688Z,12.11
2022-11-02T03:14:42.406Z,12.14
2022-11-02T03:17:27.095Z,12.15
2022-11-02T03:20:32.248Z,12.18
2022-11-02T03:23:18.495Z,12.17
2022-11-02T03:26:08.617Z,12.19
2022-11-02T03:28:58.948Z,12.23
2022-11-02T03:31:35.155Z,12.23
2022-11-02T03:34:12.292Z,12.28
2022-11-02T03:36:50.667Z,12.25
2022-11-02T03:39:21.035Z,12.25
2022-11-02T03:41:48.924Z,12.25
2022-11-02T03:44:21.344Z,12.27
2022-11-02T03:46:49.148Z,12.26
2022-11-02T03:49:18.868Z,12.26
2022-11-02T03:51:46.750Z,12.24
2022-11-02T03:54:35.144Z,12.25
2022-11-02T03:59:37.858Z,12.24
2022-11-02T04:02:05.868Z,12.26
2022-11-02T04:04:33.911Z,12.26
2022-11-02T04:07:06.353Z,12.27
2022-11-02T04:09:34.137Z,12.29
2022-11-02T04:12:20.776Z,12.28
2022-11-02T04:14:48.946Z,12.30
2022-11-02T04:17:35.374Z,12.29
2022-11-02T04:20:03.277Z,12.28
2022-11-02T04:22:49.432Z,12.28
2022-11-02T04:25:21.587Z,12.27
2022-11-02T04:27:51.083Z,12.27
2022-11-02T04:30:20.988Z,12.27
2022-11-02T04:33:09.365Z,12.28
2022-11-02T04:35:37.771Z,12.27
2022-11-02T04:38:24.153Z,12.28
2022-11-02T04:41:14.697Z,12.29
2022-11-02T04:43:42.537Z,12.29
2022-11-02T04:46:10.648Z,12.31
2022-11-02T04:48:38.599Z,12.32
2022-11-02T04:51:11.157Z,12.29
2022-11-02T04:53:39.259Z,12.28
2022-11-02T04:56:10.113Z,12.28
2022-11-02T04:58:38.066Z,12.28
2022-11-02T05:01:10.175Z,12.27
2022-11-02T05:03:40.544Z,12.28
2022-11-02T05:06:08.629Z,12.26
2022-11-02T05:08:37.542Z,12.27
2022-11-02T05:11:09.713Z,12.30
2022-11-02T05:13:37.768Z,12.32
2022-11-02T05:16:10.477Z,12.33
2022-11-02T05:18:41.361Z,12.33
2022-11-02T05:21:10.611Z,12.32
2022-11-02T05:23:38.758Z,12.33
2022-11-02T05:26:11.673Z,12.35
2022-11-02T05:28:39.808Z,12.35
2022-11-02T05:31:09.030Z,12.35
2022-11-02T05:33:40.401Z,12.35
2022-11-02T05:36:08.503Z,12.38
2022-11-02T05:38:36.562Z,12.35
2022-11-02T05:41:04.912Z,12.35
2022-11-02T05:43:32.880Z,12.33
2022-11-02T05:46:02.514Z,12.34
2022-11-02T05:48:33.273Z,12.36
2022-11-02T05:51:02.901Z,12.39
2022-11-02T05:53:35.231Z,12.40
2022-11-02T05:56:07.747Z,12.42
2022-11-02T05:58:35.765Z,12.44
2022-11-02T06:01:04.798Z,12.41
2022-11-02T06:03:33.134Z,12.38
2022-11-02T06:06:01.869Z,12.38
2022-11-02T06:08:30.486Z,12.41
2022-11-02T06:10:58.658Z,12.42
2022-11-02T06:13:26.524Z,12.41
2022-11-02T06:15:54.540Z,12.40
2022-11-02T06:18:27.402Z,12.42
2022-11-02T06:20:57.752Z,12.43
2022-11-02T06:23:26.770Z,12.42
2022-11-02T06:26:00.331Z,12.42
2022-11-02T06:28:28.339Z,12.42
2022-11-02T06:30:56.341Z,12.45
2022-11-02T06:33:24.287Z,12.42
2022-11-02T06:35:55.658Z,12.42
2022-11-02T06:38:23.781Z,12.42
2022-11-02T06:41:00.085Z,12.44
2022-11-02T06:43:28.184Z,12.46
2022-11-02T06:45:57.189Z,12.49
2022-11-02T06:48:34.977Z,12.53
2022-11-02T06:51:04.381Z,12.54
2022-11-02T06:53:32.982Z,12.56
2022-11-02T06:56:01.261Z,12.58
2022-11-02T06:58:29.293Z,12.59
2022-11-02T07:01:03.440Z,12.62
2022-11-02T07:03:31.553Z,12.63
2022-11-02T07:05:59.611Z,12.68
2022-11-02T07:08:28.671Z,12.68
2022-11-02T07:10:56.662Z,12.68
2022-11-02T07:13:27.308Z,12.67
2022-11-02T07:15:55.943Z,12.63
2022-11-02T07:18:24.872Z,12.65
2022-11-02T07:20:52.865Z,12.69
2022-11-02T07:23:24.727Z,12.73
2022-11-02T07:25:52.643Z,12.79
2022-11-02T07:28:21.726Z,12.83
2022-11-02T07:30:49.555Z,12.86
2022-11-02T07:33:17.456Z,12.90
2022-11-02T07:35:45.279Z,12.92
2022-11-02T07:38:13.079Z,13.20
2022-11-02T07:40:40.884Z,13.37
2022-11-02T07:43:09.143Z,13.51
2022-11-02T07:45:37.314Z,13.69
2022-11-02T07:48:05.232Z,13.72
2022-11-02T07:50:33.037Z,13.61
2022-11-02T07:53:02.008Z,13.55
2022-11-02T07:55:31.035Z,13.54
2022-11-02T07:58:03.437Z,13.53
2022-11-02T08:00:36.382Z,13.49
2022-11-02T08:03:05.181Z,13.50
2022-11-02T08:05:35.263Z,13.49
2022-11-02T08:08:04.835Z,13.54
2022-11-02T08:10:37.044Z,13.55
2022-11-02T08:13:09.133Z,13.59
2022-11-02T08:15:37.255Z,13.59
2022-11-02T08:18:06.021Z,13.55
2022-11-02T08:20:35.553Z,13.50
2022-11-02T08:23:03.831Z,13.51
2022-11-02T08:25:32.023Z,13.52
2022-11-02T08:28:00.609Z,13.48
2022-11-02T08:30:29.351Z,13.45
2022-11-02T08:32:57.537Z,13.44
2022-11-02T08:35:25.645Z,13.49
2022-11-02T08:37:56.678Z,13.55
2022-11-02T08:40:24.962Z,13.57
2022-11-02T08:43:02.857Z,13.61
2022-11-02T08:45:53.860Z,13.68
2022-11-02T08:48:19.162Z,13.79
2022-11-02T08:50:47.056Z,14.00
2022-11-02T08:53:15.065Z,14.15
2022-11-02T08:55:43.196Z,14.24
2022-11-02T08:58:11.207Z,14.28
2022-11-02T09:00:39.165Z,14.22
2022-11-02T09:03:11.041Z,14.13
2022-11-02T09:05:40.990Z,14.09
2022-11-02T09:08:11.240Z,14.06
2022-11-02T09:10:39.234Z,14.09
2022-11-02T09:13:08.495Z,14.11
2022-11-02T09:15:37.227Z,14.15
2022-11-02T09:18:06.459Z,14.22
2022-11-02T09:20:34.672Z,14.27
2022-11-02T09:23:02.529Z,14.29
2022-11-02T09:25:30.307Z,14.24
2022-11-02T09:27:58.528Z,14.33
2022-11-02T09:30:27.286Z,14.32
2022-11-02T09:32:59.078Z,14.21
2022-11-02T09:35:30.874Z,14.20
2022-11-02T09:37:58.907Z,14.19
2022-11-02T09:40:38.327Z,14.11
2022-11-02T09:43:32.662Z,14.13
2022-11-02T09:46:12.436Z,14.13
2022-11-02T09:48:47.636Z,14.14
2022-11-02T09:51:36.789Z,14.11
2022-11-02T09:54:17.404Z,14.05
2022-11-02T09:56:45.974Z,14.03
2022-11-02T09:59:24.175Z,14.06
2022-11-02T10:02:02.179Z,14.04
2022-11-02T10:04:52.090Z,14.01
2022-11-02T10:07:38.434Z,14.04
2022-11-02T10:10:40.913Z,14.07
2022-11-02T10:13:14.599Z,14.10
2022-11-02T10:16:05.651Z,14.06
2022-11-02T10:18:33.473Z,14.03
2022-11-02T10:21:14.925Z,14.00
2022-11-02T10:23:46.503Z,13.96
2022-11-02T10:26:44.560Z,14.03
2022-11-02T10:29:41.116Z,13.96
2022-11-02T10:32:14.018Z,13.96
2022-11-02T10:34:42.184Z,13.91
2022-11-02T10:37:37.886Z,13.85
2022-11-02T10:40:05.578Z,13.83
2022-11-02T10:42:44.252Z,13.85
2022-11-02T10:45:36.380Z,13.89
2022-11-02T10:48:09.750Z,13.90
2022-11-02T10:50:54.890Z,13.96
2022-11-02T10:56:19.280Z,14.03
2022-11-02T10:59:14.117Z,14.06
2022-11-02T11:02:03.451Z,14.11
2022-11-02T11:04:32.513Z,14.17
2022-11-02T11:07:05.959Z,14.22
2022-11-02T11:09:42.858Z,14.27
2022-11-02T11:12:33.073Z,14.21
2022-11-02T11:20:41.061Z,14.27
2022-11-02T11:23:20.832Z,14.23
2022-11-02T11:26:01.177Z,14.23
2022-11-02T11:28:38.487Z,14.16
2022-11-02T11:31:15.630Z,14.21
2022-11-02T11:33:50.498Z,14.21
2022-11-02T11:36:34.242Z,14.22
2022-11-02T11:39:04.551Z,14.25
2022-11-02T11:41:32.503Z,14.28
2022-11-02T11:44:00.509Z,14.33
2022-11-02T11:46:49.881Z,14.24
2022-11-02T11:52:27.009Z,14.33
2022-11-02T11:55:00.378Z,14.37
2022-11-02T11:57:35.211Z,14.42
2022-11-02T12:00:06.021Z,14.45
2022-11-02T12:02:41.032Z,14.45
2022-11-02T12:05:18.552Z,14.48
2022-11-02T12:07:56.041Z,14.41
2022-11-02T12:10:38.098Z,14.45
2022-11-02T12:13:09.005Z,14.44
2022-11-02T12:16:02.723Z,14.51
2022-11-02T12:18:36.585Z,14.61
2022-11-02T12:21:29.261Z,14.69
2022-11-02T12:23:59.624Z,14.71
2022-11-02T12:26:30.052Z,14.73
2022-11-02T12:29:00.670Z,14.79
2022-11-02T12:31:36.608Z,14.87
2022-11-02T12:34:40.691Z,14.93
2022-11-02T12:40:20.608Z,15.04
2022-11-02T12:43:11.535Z,15.08
2022-11-02T12:45:53.641Z,15.08
2022-11-02T12:48:41.667Z,15.17
2022-11-02T12:51:13.531Z,15.21
2022-11-02T12:54:00.957Z,15.27
2022-11-02T12:56:45.379Z,15.30
2022-11-02T12:59:44.833Z,15.36
2022-11-02T13:02:22.077Z,15.40
2022-11-02T13:05:13.897Z,15.42
2022-11-02T13:08:01.911Z,15.52
2022-11-02T13:10:38.611Z,15.56
2022-11-02T13:13:06.921Z,15.60
2022-11-02T13:15:35.761Z,15.55
2022-11-02T13:18:28.403Z,15.56
2022-11-02T13:21:00.363Z,15.46
2022-11-02T13:23:44.087Z,15.53
2022-11-02T13:26:30.351Z,15.55
2022-11-02T13:29:07.898Z,15.69
2022-11-02T13:31:45.848Z,15.81
2022-11-02T13:34:15.837Z,15.87
2022-11-02T13:36:43.576Z,15.90
2022-11-02T13:39:18.190Z,15.99
2022-11-02T13:42:00.765Z,16.04
2022-11-02T13:44:49.777Z,16.10
2022-11-02T13:47:44.984Z,16.16
2022-11-02T13:50:14.713Z,16.13
2022-11-02T13:53:15.994Z,16.24
2022-11-02T13:55:55.433Z,16.32
2022-11-02T13:58:34.336Z,16.34
2022-11-02T14:01:03.603Z,16.43
2022-11-02T14:03:46.539Z,16.52
2022-11-02T14:06:16.400Z,16.61
2022-11-02T14:08:59.670Z,16.62
2022-11-02T14:11:43.313Z,16.61
2022-11-02T14:14:15.631Z,16.51
2022-11-02T14:16:52.442Z,16.42
2022-11-02T14:19:24.104Z,16.34
2022-11-02T14:22:00.652Z,16.29
2022-11-02T14:24:37.497Z,16.19
2022-11-02T14:27:14.862Z,16.08
2022-11-02T14:29:48.744Z,16.07
2022-11-02T14:32:22.117Z,15.99
2022-11-02T14:35:05.545Z,15.95
2022-11-02T14:37:47.624Z,15.79
2022-11-02T14:40:54.004Z,15.72
2022-11-02T14:43:52.784Z,15.66
2022-11-02T14:46:28.297Z,15.57
2022-11-02T14:48:57.847Z,15.44
2022-11-02T14:51:33.585Z,15.42
2022-11-02T14:54:05.771Z,15.36
2022-11-02T14:57:05.207Z,15.24
2022-11-02T14:59:41.142Z,15.23
2022-11-02T15:02:24.360Z,15.16
2022-11-02T15:04:53.967Z,15.13
2022-11-02T15:07:23.498Z,15.08
2022-11-02T15:09:58.847Z,15.04
2022-11-02T15:12:38.329Z,15.03
2022-11-02T15:15:05.971Z,15.00
2022-11-02T15:17:33.611Z,14.92
2022-11-02T15:20:16.697Z,14.82
2022-11-02T15:22:46.353Z,14.71
2022-11-02T15:25:21.792Z,14.65
2022-11-02T15:27:50.282Z,14.58
2022-11-02T15:30:23.857Z,14.47
2022-11-02T15:33:01.727Z,14.40
2022-11-02T15:35:35.896Z,14.30
2022-11-02T15:38:17.591Z,14.24
2022-11-02T15:41:11.827Z,14.13
2022-11-02T15:43:51.642Z,14.11
2022-11-02T15:46:44.443Z,14.01
2022-11-02T15:49:27.990Z,13.92
2022-11-02T15:52:19.990Z,13.85
2022-11-02T15:55:07.290Z,13.77
2022-11-02T15:57:34.951Z,13.66
2022-11-02T16:00:08.162Z,13.61
2022-11-02T16:02:40.194Z,13.55
2022-11-02T16:05:08.304Z,13.64
2022-11-02T16:07:50.345Z,13.68
2022-11-02T16:10:33.635Z,13.68
2022-11-02T16:13:21.800Z,13.70
2022-11-02T16:15:50.039Z,13.67
2022-11-02T16:18:31.550Z,13.66
2022-11-02T16:21:02.438Z,13.64
2022-11-02T16:23:41.290Z,13.62
2022-11-02T16:26:10.628Z,13.60
2022-11-02T16:28:38.892Z,13.59
2022-11-02T16:31:18.839Z,13.58
2022-11-02T16:33:55.210Z,13.54
2022-11-02T16:36:33.591Z,13.42
2022-11-02T16:39:07.952Z,13.42
2022-11-02T16:41:36.085Z,13.39
2022-11-02T16:44:11.219Z,13.32
2022-11-02T16:46:59.143Z,13.31
2022-11-02T16:49:30.178Z,13.25
2022-11-02T16:52:02.700Z,13.15
2022-11-02T16:54:38.600Z,13.07
2022-11-02T16:57:12.111Z,12.96
2022-11-02T17:00:03.773Z,12.86
2022-11-02T17:02:41.298Z,12.81
2022-11-02T17:05:20.923Z,12.77
2022-11-02T17:08:19.322Z,12.68
2022-11-02T17:10:47.133Z,12.60
2022-11-02T17:13:21.584Z,12.50
2022-11-02T17:15:50.778Z,12.46
2022-11-02T17:18:28.312Z,12.43
2022-11-02T17:21:14.594Z,12.37
2022-11-02T17:23:43.598Z,12.35
2022-11-02T17:26:26.976Z,12.35
2022-11-02T17:29:01.642Z,12.28
2022-11-02T17:31:34.574Z,12.23
2022-11-02T17:34:09.421Z,12.15
2022-11-02T17:36:47.292Z,12.10
2022-11-02T17:39:16.080Z,12.05
2022-11-02T17:42:03.021Z,12.04
2022-11-02T17:44:30.837Z,12.00
2022-11-02T17:46:58.646Z,11.94
2022-11-02T17:49:26.453Z,11.89
2022-11-02T17:51:54.340Z,11.86
2022-11-02T17:54:24.615Z,11.83
2022-11-02T17:56:52.462Z,11.77
2022-11-02T17:59:20.302Z,11.69
2022-11-02T18:01:48.264Z,11.67
2022-11-02T18:04:16.129Z,11.62
2022-11-02T18:06:43.895Z,11.55
2022-11-02T18:09:20.665Z,11.53
2022-11-02T18:11:48.478Z,11.52
2022-11-02T18:14:17.930Z,11.48
2022-11-02T18:16:54.091Z,11.42
2022-11-02T18:19:21.920Z,11.35
2022-11-02T18:21:49.692Z,11.35
2022-11-02T18:24:17.416Z,11.31
2022-11-02T18:26:47.004Z,11.27
2022-11-02T18:29:15.032Z,11.20
2022-11-02T18:31:42.932Z,11.17
2022-11-02T18:34:11.214Z,11.13
2022-11-02T18:36:42.135Z,11.08
2022-11-02T18:39:09.916Z,11.12
2022-11-02T18:41:38.660Z,11.08
2022-11-02T18:44:14.585Z,11.04
2022-11-02T18:46:43.330Z,11.02
2022-11-02T18:49:16.970Z,10.96
2022-11-02T18:51:56.207Z,10.96
2022-11-02T18:54:32.160Z,10.92
2022-11-02T18:57:04.710Z,10.92
2022-11-02T18:59:32.665Z,10.90
2022-11-02T19:02:00.695Z,10.88
2022-11-02T19:04:28.669Z,10.84
2022-11-02T19:07:16.342Z,10.78
2022-11-02T19:09:44.569Z,10.74
2022-11-02T19:12:26.649Z,10.70
2022-11-02T19:14:59.180Z,10.71
2022-11-02T19:17:27.396Z,10.66
2022-11-02T19:19:55.333Z,10.61
2022-11-02T19:22:24.385Z,10.54
2022-11-02T19:24:52.401Z,10.49
2022-11-02T19:27:24.464Z,10.45
2022-11-02T19:29:52.513Z,10.43
2022-11-02T19:32:23.826Z,10.37
2022-11-02T19:34:51.693Z,10.35
2022-11-02T19:37:20.354Z,10.31
2022-11-02T19:39:48.134Z,10.28
2022-11-02T19:42:16.183Z,10.26
2022-11-02T19:44:44.048Z,10.20
2022-11-02T19:47:12.188Z,10.21
2022-11-02T19:49:40.156Z,10.16
2022-11-02T19:52:08.067Z,10.16
2022-11-02T19:54:36.065Z,10.11
2022-11-02T19:57:03.952Z,10.07
2022-11-02T19:59:31.974Z,10.06
2022-11-02T20:01:59.798Z,10.00
2022-11-02T20:04:27.697Z,9.98
2022-11-02T20:06:55.836Z,10.00
2022-11-02T20:09:23.918Z,9.97
2022-11-02T20:11:51.963Z,9.98
2022-11-02T20:14:20.036Z,9.92
2022-11-02T20:16:58.813Z,9.89
2022-11-02T20:19:36.021Z,9.89
2022-11-02T20:22:03.873Z,9.85
2022-11-02T20:24:31.806Z,9.83
2022-11-02T20:27:03.959Z,9.83
2022-11-02T20:29:31.850Z,9.81
2022-11-02T20:31:59.751Z,9.78
2022-11-02T20:34:27.661Z,9.80
2022-11-02T20:36:55.658Z,9.83
2022-11-02T20:39:23.493Z,9.78
2022-11-02T20:41:56.951Z,9.72
2022-11-02T20:44:25.265Z,9.70
2022-11-02T20:46:53.655Z,9.65
2022-11-02T20:49:44.334Z,9.60
2022-11-02T20:52:11.259Z,9.58
2022-11-02T20:54:42.788Z,9.55
2022-11-02T20:57:10.975Z,9.55
2022-11-02T20:59:38.960Z,9.55
2022-11-02T21:02:07.143Z,9.50
2022-11-02T21:04:37.765Z,9.47
2022-11-02T21:07:05.700Z,9.49
2022-11-02T21:09:33.656Z,9.44
2022-11-02T21:12:20.119Z,9.44
2022-11-02T21:14:48.278Z,9.43
2022-11-02T21:17:20.511Z,9.40
2022-11-02T21:19:54.242Z,9.37
2022-11-02T21:22:26.100Z,9.35
2022-11-02T21:24:54.133Z,9.34
2022-11-02T21:27:22.036Z,9.28
2022-11-02T21:29:49.954Z,9.30
2022-11-02T21:32:18.936Z,9.27
2022-11-02T21:34:46.821Z,9.24
2022-11-02T21:37:14.703Z,9.22
2022-11-02T21:39:42.515Z,9.20
2022-11-02T21:42:10.371Z,9.19
2022-11-02T21:44:38.256Z,9.20
2022-11-02T21:47:06.147Z,9.20
2022-11-02T21:49:34.113Z,9.18
2022-11-02T21:52:02.392Z,9.16
2022-11-02T21:54:30.299Z,9.17
2022-11-02T21:56:59.519Z,9.19
2022-11-02T21:59:27.387Z,9.19
2022-11-02T22:01:55.519Z,9.18
2022-11-02T22:04:32.796Z,9.17
2022-11-02T22:07:01.112Z,9.11
2022-11-02T22:09:30.210Z,9.08
2022-11-02T22:12:16.791Z,9.08
2022-11-02T22:14:45.844Z,9.08
2022-11-02T22:17:35.736Z,9.06
2022-11-02T22:20:01.933Z,9.01
2022-11-02T22:22:29.834Z,8.98
2022-11-02T22:24:57.679Z,8.94
2022-11-02T22:27:25.625Z,8.96
2022-11-02T22:29:53.410Z,8.95
2022-11-02T22:32:21.243Z,8.95
2022-11-02T22:34:49.215Z,8.96
2022-11-02T22:37:38.590Z,8.97
2022-11-02T22:40:06.860Z,8.95
2022-11-02T22:42:38.313Z,8.93
2022-11-02T22:45:10.297Z,8.93
2022-11-02T22:47:38.366Z,8.91
2022-11-02T22:50:06.772Z,8.90
2022-11-02T22:52:34.623Z,8.86
2022-11-02T22:55:02.478Z,8.86
2022-11-02T22:57:30.324Z,8.88
2022-11-02T22:59:58.130Z,8.86
2022-11-02T23:02:26.065Z,8.84
2022-11-02T23:04:53.901Z,8.81
2022-11-02T23:07:26.489Z,8.80
2022-11-02T23:09:54.401Z,8.80
2022-11-02T23:12:22.206Z,8.82
2022-11-02T23:14:50.001Z,8.80
2022-11-02T23:17:17.810Z,8.82
2022-11-02T23:19:46.052Z,8.87
2022-11-02T23:22:31.811Z,8.88
2022-11-02T23:25:13.060Z,8.90
2022-11-02T23:28:18.290Z,8.94
2022-11-02T23:31:04.925Z,9.00
2022-11-02T23:33:34.035Z,9.04
2022-11-02T23:36:15.074Z,9.09
2022-11-02T23:39:05.666Z,9.08
2022-11-02T23:41:34.836Z,9.14
2022-11-02T23:44:20.216Z,9.15
2022-11-02T23:46:51.927Z,9.16
2022-11-02T23:49:22.798Z,9.18
2022-11-02T23:52:09.496Z,9.23
2022-11-02T23:54:55.721Z,9.24
2022-11-02T23:57:23.807Z,9.24
2022-11-02T23:59:51.680Z,9.25
